KCPK

Chesapeake Regional Airport

Norfolk, Virginia, USA
METAR KCPK 221415Z AUTO 33003KT 10SM CLR 10/04 A3036 RMK AO2 T01040035
Observed Flight Rules
Oct-22 @ 14:15 UTC (6 minutes ago) Visual Flight Rules
Wind Visibility Clouds
330° at 3 knots 10 miles
  • Clear skies
Temperatures Readings
Current 10°C / 50°F
Dewpoint 4°C / 39°F
Humidity 67%
Altimeter 30.36" Hg
Pressure 1028 hPa
Elevation 6
METAR KCPK 221415Z AUTO 33003KT 10SM CLR 10/04 A3036 RMK AO2 T01040035
Observed Flight Rules
Oct-22 @ 14:15 UTC
(6 minutes ago)
VFR
Wind Visibility
330° at 3 knots 10 miles
Clouds
  • Clear skies
Temperature Dewpoint
10°C / 50°F 4°C / 39°F
Humidity Altimeter Pressure
67% 30.36" Hg 1028 hPa